Terminal Aerodrome Forecast
Issued by NWS

Home | Current Version | Previous Version | Text Only | Print | Product List | Glossary On
Versions: 1 2 3 4 5 6 7 8 9 10 11 12 13 14 15 16 17 18 19 20 21 22 23 24
598
FTUS41 KCAR 120248 AAA
TAFPQI
TAF AMD
KPQI 120248Z 1203/1224 33010KT 5SM -SHSN SCT025 OVC035
      TEMPO 1203/1205 2SM -SN BR SCT015 OVC025
     FM120600 32010KT P6SM BKN040
     FM121200 28010KT P6SM SCT040
     FM122200 VRB03KT P6SM SCT040=

USA.gov is the U.S. government's official web portal to all federal, state and local government web resources and services.